Anamoose, North Dakota
Current Conditions -  °F | °C
As of 4:35 PM on Tuesday 21 Oct 2014 (Local Time) from K5H4 Reporting Station
Clear Clear  
Wind Chill: 73°   Ceiling: Unl
Heat Index: 73°   Visibility: 10mi
Dew Point: 45°   Wind: 18mph
Humidity: 36%   Direction: 150°SSE
Pressure: 29.68"   Gusts: 25mph
Location:  47.88°N, 100.24°W
Report Text: K5H4 212135Z AUTO 15016G22KT 10SM CLR 23/07 A2968 RMK AO2
Loading
Personal Weather Stations






























Interactive Weather Map
Tropical Storm Tracking
New forecast layout! Learn more

10-Day Weather Forecast

Advertisements
Track Severe Weather on mobile